Elka Park, New York
Current Conditions -  °F | °C
As of 9:53 PM on Tuesday 25 Nov 2014 (Local Time) from KPOU Reporting Station
Clear Clear  
Wind Chill: 38°   Ceiling: Unl
Heat Index: 38°   Visibility: 10mi
Dew Point: 31°   Wind: 3mph
Humidity: 76%   Direction: 110°ESE
Pressure: 30.11"   Gusts: NA
Location:  42.16°N, 74.16°W
Report Text: KPOU 260253Z AUTO 11003KT 10SM CLR 03/M01 A3011 RMK AO2 SLP195 T00331006 51025 TSNO
Loading
Personal Weather Stations






























Interactive Weather Map New forecast layout! Learn more

10-Day Weather Forecast

Advertisements
Track Severe Weather on mobile